createdAt,value
2017-11-17T00:00:31.565Z,47.41
2017-11-17T00:02:57.353Z,47.21
2017-11-17T00:05:23.137Z,47.59
2017-11-17T00:07:48.921Z,47.49
2017-11-17T00:10:14.761Z,47.62
2017-11-17T00:12:40.541Z,47.43
2017-11-17T00:15:06.314Z,47.28
2017-11-17T00:17:32.109Z,47.28
2017-11-17T00:19:57.897Z,46.97
2017-11-17T00:22:23.679Z,46.94
2017-11-17T00:24:49.463Z,47.56
2017-11-17T00:27:15.273Z,47.75
2017-11-17T00:29:41.046Z,47.57
2017-11-17T00:32:06.829Z,47.09
2017-11-17T00:34:32.602Z,46.99
2017-11-17T00:36:58.376Z,47.17
2017-11-17T00:39:24.157Z,46.97
2017-11-17T00:41:49.933Z,47.01
2017-11-17T00:44:15.715Z,47.27
2017-11-17T00:46:41.492Z,47.12
2017-11-17T00:49:07.268Z,47.13
2017-11-17T00:51:33.045Z,47.15
2017-11-17T00:53:58.821Z,47.27
2017-11-17T00:56:24.601Z,47.13
2017-11-17T00:58:50.374Z,47.15
2017-11-17T01:01:16.152Z,47.68
2017-11-17T01:03:41.930Z,47.27
2017-11-17T01:06:07.727Z,47.24
2017-11-17T01:08:33.513Z,47.96
2017-11-17T01:10:59.294Z,47.28
2017-11-17T01:13:25.075Z,47.56
2017-11-17T01:15:50.853Z,47.20
2017-11-17T01:18:16.635Z,48.00
2017-11-17T01:20:42.421Z,47.48
2017-11-17T01:23:08.198Z,47.49
2017-11-17T01:25:34.009Z,47.35
2017-11-17T01:27:59.789Z,47.67
2017-11-17T01:30:25.567Z,47.41
2017-11-17T01:32:51.344Z,47.43
2017-11-17T01:35:17.121Z,48.59
2017-11-17T01:37:42.904Z,47.45
2017-11-17T01:40:08.685Z,47.30
2017-11-17T01:42:34.469Z,47.44
2017-11-17T01:45:00.250Z,47.53
2017-11-17T01:47:26.021Z,47.50
2017-11-17T01:49:51.830Z,47.48
2017-11-17T01:52:17.605Z,47.40
2017-11-17T01:54:43.387Z,47.40
2017-11-17T01:57:09.189Z,47.71
2017-11-17T01:59:35.000Z,47.35
2017-11-17T02:02:00.793Z,48.02
2017-11-17T02:04:26.582Z,47.41
2017-11-17T02:06:52.357Z,47.57
2017-11-17T02:09:18.136Z,47.55
2017-11-17T02:11:43.911Z,47.48
2017-11-17T02:14:09.716Z,48.14
2017-11-17T02:16:35.492Z,48.15
2017-11-17T02:19:01.274Z,47.48
2017-11-17T02:21:27.051Z,47.44
2017-11-17T02:23:52.872Z,47.53
2017-11-17T02:26:18.649Z,47.47
2017-11-17T02:28:44.425Z,48.05
2017-11-17T02:31:10.217Z,47.63
2017-11-17T02:33:36.038Z,48.13
2017-11-17T02:36:01.857Z,47.74
2017-11-17T02:38:27.641Z,47.71
2017-11-17T02:40:53.457Z,47.59
2017-11-17T02:43:19.245Z,47.43
2017-11-17T02:45:45.036Z,47.33
2017-11-17T02:48:10.813Z,47.29
2017-11-17T02:50:36.605Z,47.36
2017-11-17T02:53:02.419Z,47.75
2017-11-17T02:55:28.237Z,47.86
2017-11-17T02:57:54.062Z,48.23
2017-11-17T03:00:19.859Z,47.69
2017-11-17T03:02:45.669Z,47.36
2017-11-17T03:05:11.476Z,47.62
2017-11-17T03:07:37.253Z,47.71
2017-11-17T03:10:03.045Z,47.98
2017-11-17T03:12:28.816Z,47.73
2017-11-17T03:14:54.590Z,47.75
2017-11-17T03:17:20.369Z,47.68
2017-11-17T03:19:46.151Z,47.58
2017-11-17T03:22:11.965Z,47.66
2017-11-17T03:24:37.741Z,47.68
2017-11-17T03:27:03.565Z,47.63
2017-11-17T03:29:29.404Z,47.73
2017-11-17T03:31:55.181Z,47.78
2017-11-17T03:34:20.965Z,47.79
2017-11-17T03:36:46.745Z,47.76
2017-11-17T03:39:12.521Z,47.61
2017-11-17T03:41:38.304Z,47.67
2017-11-17T03:44:04.082Z,47.69
2017-11-17T03:46:29.862Z,47.60
2017-11-17T03:48:55.637Z,47.61
2017-11-17T03:51:21.415Z,47.52
2017-11-17T03:53:47.198Z,47.68
2017-11-17T03:56:13.024Z,47.67
2017-11-17T03:58:38.797Z,47.70
2017-11-17T04:01:04.582Z,48.00
2017-11-17T04:03:30.353Z,47.66
2017-11-17T04:05:56.170Z,47.89
2017-11-17T04:08:21.954Z,47.75
2017-11-17T04:10:47.725Z,47.83
2017-11-17T04:13:13.534Z,48.00
2017-11-17T04:15:39.314Z,47.72
2017-11-17T04:18:05.092Z,47.60
2017-11-17T04:20:30.878Z,47.65
2017-11-17T04:22:56.702Z,48.01
2017-11-17T04:25:22.485Z,47.88
2017-11-17T04:27:48.282Z,47.86
2017-11-17T04:30:14.065Z,47.99
2017-11-17T04:32:39.890Z,47.81
2017-11-17T04:35:05.661Z,48.24
2017-11-17T04:37:31.434Z,48.02
2017-11-17T04:39:57.214Z,47.80
2017-11-17T04:42:22.994Z,48.11
2017-11-17T04:44:48.777Z,48.02
2017-11-17T04:47:14.573Z,48.17
2017-11-17T04:49:47.381Z,47.88
2017-11-17T04:52:13.157Z,48.23
2017-11-17T04:54:38.934Z,48.26
2017-11-17T04:57:04.713Z,48.42
2017-11-17T04:59:30.489Z,48.03
2017-11-17T05:01:56.273Z,48.16
2017-11-17T05:04:22.052Z,48.08
2017-11-17T05:06:47.837Z,47.99
2017-11-17T05:09:13.621Z,48.11
2017-11-17T05:11:39.400Z,48.23
2017-11-17T05:14:05.178Z,47.88
2017-11-17T05:16:30.961Z,48.29
2017-11-17T05:18:56.745Z,48.83
2017-11-17T05:21:22.524Z,48.72
2017-11-17T05:23:48.305Z,48.94
2017-11-17T05:26:14.082Z,48.21
2017-11-17T05:28:39.874Z,47.90
2017-11-17T05:31:05.653Z,48.37
2017-11-17T05:33:31.463Z,48.80
2017-11-17T05:35:57.276Z,48.58
2017-11-17T05:38:23.064Z,48.47
2017-11-17T05:40:48.885Z,48.38
2017-11-17T05:43:14.674Z,48.38
2017-11-17T05:45:40.460Z,48.19
2017-11-17T05:48:06.246Z,48.11
2017-11-17T05:50:32.037Z,48.22
2017-11-17T05:52:57.822Z,48.54
2017-11-17T05:55:23.617Z,48.36
2017-11-17T05:57:49.408Z,48.37
2017-11-17T06:00:15.185Z,48.81
2017-11-17T06:02:40.966Z,48.09
2017-11-17T06:05:06.823Z,48.37
2017-11-17T06:07:32.610Z,48.51
2017-11-17T06:09:58.430Z,48.33
2017-11-17T06:12:24.237Z,48.63
2017-11-17T06:14:50.030Z,48.59
2017-11-17T06:17:15.817Z,48.36
2017-11-17T06:19:41.607Z,48.16
2017-11-17T06:22:07.420Z,48.16
2017-11-17T06:24:33.211Z,48.61
2017-11-17T06:26:59.045Z,48.51
2017-11-17T06:29:24.830Z,48.86
2017-11-17T06:31:50.641Z,48.97
2017-11-17T06:34:16.445Z,48.56
2017-11-17T06:36:42.249Z,48.36
2017-11-17T06:39:08.029Z,48.47
2017-11-17T06:41:33.813Z,48.72
2017-11-17T06:43:59.645Z,48.59
2017-11-17T06:46:25.443Z,48.74
2017-11-17T06:48:51.317Z,48.48
2017-11-17T06:51:17.099Z,48.60
2017-11-17T06:53:42.909Z,48.45
2017-11-17T06:56:08.738Z,48.25
2017-11-17T06:58:34.533Z,48.34
2017-11-17T07:01:00.537Z,47.88
2017-11-17T07:03:26.315Z,48.20
2017-11-17T07:05:52.094Z,48.03
2017-11-17T07:08:17.876Z,48.02
2017-11-17T07:10:43.726Z,48.21
2017-11-17T07:13:09.548Z,48.48
2017-11-17T07:15:35.357Z,48.44
2017-11-17T07:18:01.189Z,49.23
2017-11-17T07:20:26.974Z,47.93
2017-11-17T07:22:52.752Z,47.98
2017-11-17T07:25:18.534Z,48.28
2017-11-17T07:27:44.353Z,49.85
2017-11-17T07:30:10.135Z,49.35
2017-11-17T07:32:35.909Z,48.91
2017-11-17T07:35:01.701Z,48.41
2017-11-17T07:37:27.481Z,48.53
2017-11-17T07:39:53.285Z,48.53
2017-11-17T07:42:19.073Z,48.76
2017-11-17T07:44:44.883Z,48.70
2017-11-17T07:47:10.669Z,48.76
2017-11-17T07:49:36.499Z,48.43
2017-11-17T07:52:02.282Z,49.37
2017-11-17T07:54:28.061Z,48.47
2017-11-17T07:56:53.850Z,48.80
2017-11-17T07:59:19.631Z,49.22
2017-11-17T08:01:45.418Z,48.72
2017-11-17T08:04:11.334Z,48.52
2017-11-17T08:06:37.113Z,48.80
2017-11-17T08:09:02.918Z,48.66
2017-11-17T08:11:28.737Z,48.12
2017-11-17T08:13:54.529Z,48.66
2017-11-17T08:16:20.323Z,48.67
2017-11-17T08:18:46.112Z,49.33
2017-11-17T08:21:11.915Z,49.31
2017-11-17T08:23:37.697Z,48.93
2017-11-17T08:26:03.513Z,48.99
2017-11-17T08:28:29.306Z,50.53
2017-11-17T08:30:55.125Z,49.26
2017-11-17T08:33:20.906Z,48.67
2017-11-17T08:35:46.717Z,50.51
2017-11-17T08:38:12.504Z,48.83
2017-11-17T08:40:38.335Z,48.69
2017-11-17T08:43:04.113Z,48.51
2017-11-17T08:45:29.911Z,48.63
2017-11-17T08:47:55.724Z,48.46
2017-11-17T08:50:21.506Z,47.13
2017-11-17T08:52:47.284Z,47.54
2017-11-17T08:55:13.085Z,47.16
2017-11-17T08:57:38.929Z,47.29
2017-11-17T09:00:04.725Z,47.58
2017-11-17T09:02:30.502Z,47.80
2017-11-17T09:04:56.284Z,48.08
2017-11-17T09:07:22.073Z,47.76
2017-11-17T09:09:47.854Z,47.79
2017-11-17T09:12:13.650Z,47.94
2017-11-17T09:14:39.469Z,48.01
2017-11-17T09:17:05.254Z,47.58
2017-11-17T09:19:31.072Z,47.83
2017-11-17T09:21:56.895Z,47.75
2017-11-17T09:24:22.678Z,47.96
2017-11-17T09:26:48.689Z,47.42
2017-11-17T09:29:14.475Z,47.03
2017-11-17T09:31:40.416Z,46.61
2017-11-17T09:34:06.201Z,46.96
2017-11-17T09:36:31.994Z,47.20
2017-11-17T09:38:57.865Z,47.03
2017-11-17T09:41:23.658Z,47.07
2017-11-17T09:43:49.630Z,47.18
2017-11-17T09:46:15.419Z,46.36
2017-11-17T09:48:41.217Z,46.48
2017-11-17T09:51:06.993Z,46.52
2017-11-17T09:53:32.811Z,47.05
2017-11-17T09:55:58.694Z,46.50
2017-11-17T09:58:24.642Z,47.77
2017-11-17T10:00:50.526Z,48.21
2017-11-17T10:03:16.310Z,47.66
2017-11-17T10:05:42.269Z,46.80
2017-11-17T10:08:08.226Z,47.13
2017-11-17T10:10:34.046Z,47.00
2017-11-17T10:12:59.829Z,47.79
2017-11-17T10:15:25.642Z,47.27
2017-11-17T10:17:51.484Z,47.24
2017-11-17T10:20:19.206Z,45.91
2017-11-17T10:22:44.986Z,45.95
2017-11-17T10:25:11.867Z,45.90
2017-11-17T10:27:37.696Z,47.75
2017-11-17T10:30:03.494Z,48.60
2017-11-17T10:32:29.460Z,46.84
2017-11-17T10:34:55.253Z,46.28
2017-11-17T10:37:21.032Z,48.33
2017-11-17T10:39:46.937Z,47.62
2017-11-17T10:42:12.738Z,47.34
2017-11-17T10:44:38.575Z,47.21
2017-11-17T10:47:04.353Z,47.24
2017-11-17T10:49:30.179Z,47.64
2017-11-17T10:51:55.977Z,46.85
2017-11-17T10:54:21.793Z,46.73
2017-11-17T10:56:47.573Z,46.43
2017-11-17T10:59:17.444Z,47.15
2017-11-17T11:01:43.281Z,46.53
2017-11-17T11:04:09.065Z,46.34
2017-11-17T11:06:34.843Z,47.78
2017-11-17T11:09:00.637Z,46.55
2017-11-17T11:11:32.682Z,46.77
2017-11-17T11:13:58.462Z,46.78
2017-11-17T11:16:24.246Z,46.87
2017-11-17T11:18:50.046Z,46.50
2017-11-17T11:21:15.899Z,46.43
2017-11-17T11:23:41.696Z,46.39
2017-11-17T11:26:07.546Z,47.05
2017-11-17T11:28:33.337Z,47.00
2017-11-17T11:30:59.129Z,46.98
2017-11-17T11:33:24.966Z,46.94
2017-11-17T11:35:50.742Z,46.79
2017-11-17T11:38:16.519Z,47.67
2017-11-17T11:40:42.317Z,46.63
2017-11-17T11:43:08.102Z,46.17
2017-11-17T11:45:33.998Z,46.78
2017-11-17T11:47:59.799Z,46.84
2017-11-17T11:50:25.593Z,47.10
2017-11-17T11:52:51.381Z,46.70
2017-11-17T11:55:17.161Z,46.58
2017-11-17T11:57:42.936Z,46.63
2017-11-17T12:00:08.759Z,45.98
2017-11-17T12:02:34.557Z,45.78
2017-11-17T12:35:20.060Z,43.98
2017-11-17T12:37:45.876Z,43.94
2017-11-17T12:40:11.653Z,43.49
2017-11-17T12:42:37.469Z,43.84
2017-11-17T12:45:03.279Z,43.80
2017-11-17T12:47:29.065Z,42.69
2017-11-17T12:49:54.840Z,43.85
2017-11-17T12:52:21.455Z,44.30
2017-11-17T12:54:47.401Z,43.38
2017-11-17T12:57:13.181Z,42.37
2017-11-17T12:59:39.003Z,42.32
2017-11-17T13:02:04.825Z,42.14
2017-11-17T13:04:30.611Z,42.06
2017-11-17T13:06:56.549Z,42.02
2017-11-17T13:09:22.324Z,42.24
2017-11-17T13:11:48.114Z,42.82
2017-11-17T13:14:13.901Z,42.94
2017-11-17T13:16:39.777Z,43.40
2017-11-17T13:19:05.554Z,43.53
2017-11-17T13:21:31.361Z,43.03
2017-11-17T13:23:57.182Z,42.48
2017-11-17T13:26:22.968Z,41.72
2017-11-17T13:28:48.761Z,41.16
2017-11-17T13:31:14.542Z,41.71
2017-11-17T13:33:40.319Z,42.07
2017-11-17T13:36:06.158Z,43.81
2017-11-17T13:38:31.937Z,42.53
2017-11-17T13:40:57.734Z,42.85
2017-11-17T13:43:23.514Z,42.84
2017-11-17T13:45:49.310Z,43.19
2017-11-17T13:48:15.088Z,42.90
2017-11-17T13:50:40.921Z,43.10
2017-11-17T13:53:06.702Z,43.37
2017-11-17T13:55:32.618Z,43.10
2017-11-17T13:57:58.408Z,43.13
2017-11-17T14:00:24.253Z,43.33
2017-11-17T14:02:50.071Z,43.51
2017-11-17T14:05:15.966Z,43.42
2017-11-17T14:07:41.820Z,43.63
2017-11-17T14:10:07.614Z,43.51
2017-11-17T14:12:33.389Z,43.45
2017-11-17T14:14:59.205Z,43.20
2017-11-17T14:17:24.979Z,43.44
2017-11-17T14:19:50.761Z,43.82
2017-11-17T14:22:16.709Z,43.86
2017-11-17T14:24:42.490Z,44.36
2017-11-17T14:27:08.309Z,43.91
2017-11-17T14:29:34.097Z,44.41
2017-11-17T14:31:59.889Z,44.94
2017-11-17T14:34:25.681Z,44.64
2017-11-17T14:36:51.459Z,44.25
2017-11-17T14:39:17.349Z,44.72
2017-11-17T14:41:43.121Z,45.00
2017-11-17T14:44:08.905Z,44.59
2017-11-17T14:46:34.764Z,45.00
2017-11-17T14:49:00.641Z,46.15
2017-11-17T14:51:26.455Z,45.06
2017-11-17T14:53:53.753Z,44.98
2017-11-17T14:56:19.598Z,45.16
2017-11-17T14:58:46.450Z,44.95
2017-11-17T15:01:12.247Z,45.52
2017-11-17T15:03:38.109Z,44.95
2017-11-17T15:06:04.054Z,44.93
2017-11-17T15:08:29.843Z,45.24
2017-11-17T15:10:55.658Z,45.12
2017-11-17T15:13:21.496Z,45.11
2017-11-17T15:15:47.286Z,44.87
2017-11-17T15:18:13.091Z,45.17
2017-11-17T15:20:38.921Z,45.12
2017-11-17T15:23:04.768Z,45.35
2017-11-17T15:25:30.582Z,45.04
2017-11-17T15:27:56.363Z,44.97
2017-11-17T15:30:22.189Z,45.14
2017-11-17T15:32:47.980Z,45.19
2017-11-17T15:35:13.802Z,45.21
2017-11-17T15:37:39.857Z,45.10
2017-11-17T15:40:05.653Z,45.32
2017-11-17T15:42:31.441Z,44.87
2017-11-17T15:44:57.234Z,45.19
2017-11-17T15:47:23.045Z,45.18
2017-11-17T15:49:48.834Z,44.98
2017-11-17T15:52:14.810Z,44.55
2017-11-17T15:54:40.639Z,44.28
2017-11-17T15:57:06.443Z,44.51
2017-11-17T15:59:32.234Z,44.54
2017-11-17T16:01:58.025Z,44.64
2017-11-17T16:04:23.837Z,44.78
2017-11-17T16:06:49.625Z,44.73
2017-11-17T16:09:15.560Z,45.38
2017-11-17T16:11:41.349Z,45.08
2017-11-17T16:14:07.176Z,44.70
2017-11-17T16:16:32.964Z,45.07
2017-11-17T16:18:58.862Z,44.81
2017-11-17T16:21:24.647Z,45.36
2017-11-17T16:23:50.580Z,45.14
2017-11-17T16:26:16.382Z,45.17
2017-11-17T16:28:42.187Z,45.06
2017-11-17T16:31:07.984Z,45.10
2017-11-17T16:33:33.886Z,45.08
2017-11-17T16:35:59.719Z,45.07
2017-11-17T16:38:25.552Z,45.22
2017-11-17T16:40:51.334Z,45.55
2017-11-17T16:43:17.135Z,45.28
2017-11-17T16:45:42.987Z,45.25
2017-11-17T16:48:08.877Z,45.45
2017-11-17T16:50:34.888Z,45.76
2017-11-17T16:53:00.669Z,45.65
2017-11-17T16:55:26.624Z,45.43
2017-11-17T16:57:52.420Z,45.12
2017-11-17T17:00:18.719Z,46.99
2017-11-17T17:02:44.538Z,45.89
2017-11-17T17:05:11.165Z,45.38
2017-11-17T17:07:36.993Z,45.08
2017-11-17T17:10:02.784Z,45.07
2017-11-17T17:12:28.577Z,45.07
2017-11-17T17:14:54.378Z,45.26
2017-11-17T17:17:20.175Z,45.89
2017-11-17T17:19:45.952Z,45.73
2017-11-17T17:22:11.778Z,45.73
2017-11-17T17:24:37.567Z,45.56
2017-11-17T17:27:03.436Z,46.26
2017-11-17T17:29:29.231Z,45.62
2017-11-17T17:31:55.429Z,45.71
2017-11-17T17:34:21.210Z,45.22
2017-11-17T17:36:46.997Z,45.18
2017-11-17T17:39:12.781Z,46.85
2017-11-17T17:41:38.633Z,45.78
2017-11-17T17:44:04.606Z,46.61
2017-11-17T17:46:30.485Z,45.63
2017-11-17T17:48:56.265Z,45.28
2017-11-17T17:51:22.056Z,46.22
2017-11-17T17:53:47.941Z,46.64
2017-11-17T17:56:13.725Z,45.81
2017-11-17T17:58:39.510Z,45.58
2017-11-17T18:01:05.353Z,46.05
2017-11-17T18:03:31.153Z,46.05
2017-11-17T18:05:56.939Z,44.92
2017-11-17T18:08:22.728Z,46.13
2017-11-17T18:10:48.721Z,45.78
2017-11-17T18:13:14.502Z,44.97
2017-11-17T18:15:40.434Z,45.68
2017-11-17T18:18:06.218Z,46.38
2017-11-17T18:20:32.065Z,46.37
2017-11-17T18:22:58.972Z,45.77
2017-11-17T18:25:25.436Z,46.50
2017-11-17T18:27:51.366Z,46.00
2017-11-17T18:30:19.890Z,45.51
2017-11-17T18:32:45.709Z,45.47
2017-11-17T18:35:11.605Z,46.74
2017-11-17T18:37:38.370Z,45.50
2017-11-17T18:40:04.173Z,45.73
2017-11-17T18:42:30.086Z,46.55
2017-11-17T18:44:55.869Z,45.07
2017-11-17T18:47:21.780Z,45.04
2017-11-17T18:49:47.594Z,45.69
2017-11-17T18:52:13.378Z,47.23
2017-11-17T18:54:39.245Z,46.36
2017-11-17T18:57:05.098Z,47.51
2017-11-17T18:59:30.918Z,47.78
2017-11-17T19:01:56.795Z,49.44
2017-11-17T19:04:22.533Z,46.26
2017-11-17T19:06:48.600Z,46.11
2017-11-17T19:09:14.402Z,46.02
2017-11-17T19:11:40.193Z,47.04
2017-11-17T19:14:06.121Z,46.73
2017-11-17T19:16:32.009Z,46.27
2017-11-17T19:18:57.866Z,46.95
2017-11-17T19:21:23.670Z,47.53
2017-11-17T19:23:49.466Z,47.52
2017-11-17T19:26:15.289Z,46.39
2017-11-17T19:28:41.086Z,48.01
2017-11-17T19:31:06.898Z,45.64
2017-11-17T19:33:32.731Z,45.71
2017-11-17T19:35:58.699Z,47.41
2017-11-17T19:38:24.509Z,47.32
2017-11-17T19:40:50.475Z,47.65
2017-11-17T19:43:16.270Z,45.96
2017-11-17T19:45:42.054Z,47.02
2017-11-17T19:48:07.846Z,45.89
2017-11-17T19:50:33.776Z,46.23
2017-11-17T19:52:59.611Z,48.09
2017-11-17T19:55:25.406Z,45.34
2017-11-17T19:57:51.202Z,46.72
2017-11-17T20:00:19.993Z,46.24
2017-11-17T20:02:45.816Z,45.36
2017-11-17T20:05:11.631Z,45.73
2017-11-17T20:07:37.428Z,45.86
2017-11-17T20:10:03.213Z,44.86
2017-11-17T20:12:29.192Z,45.26
2017-11-17T20:14:54.998Z,44.49
2017-11-17T20:17:20.793Z,44.21
2017-11-17T20:19:46.580Z,45.21
2017-11-17T20:22:12.574Z,45.38
2017-11-17T20:24:38.396Z,45.62
2017-11-17T20:27:04.194Z,45.89
2017-11-17T20:29:29.977Z,45.73
2017-11-17T20:31:55.763Z,45.15
2017-11-17T20:34:21.547Z,45.13
2017-11-17T20:36:47.333Z,45.50
2017-11-17T20:39:13.129Z,46.07
2017-11-17T20:41:38.913Z,46.43
2017-11-17T20:44:04.717Z,46.89
2017-11-17T20:46:30.710Z,46.67
2017-11-17T20:48:56.493Z,46.31
2017-11-17T20:51:22.286Z,45.39
2017-11-17T20:53:48.089Z,45.37
2017-11-17T20:56:13.877Z,45.77
2017-11-17T20:58:40.707Z,44.85
2017-11-17T21:01:06.621Z,44.67
2017-11-17T21:03:32.414Z,44.65
2017-11-17T21:05:58.202Z,45.36
2017-11-17T21:08:23.986Z,46.46
2017-11-17T21:10:49.781Z,47.43
2017-11-17T21:13:15.606Z,46.89
2017-11-17T21:15:41.558Z,45.30
2017-11-17T21:18:07.354Z,46.50
2017-11-17T21:20:33.147Z,45.89
2017-11-17T21:22:58.952Z,46.39
2017-11-17T21:25:24.747Z,47.66
2017-11-17T21:27:51.553Z,45.20
2017-11-17T21:30:17.350Z,45.44
2017-11-17T21:32:43.137Z,45.47
2017-11-17T21:35:08.932Z,45.70
2017-11-17T21:37:34.969Z,45.10
2017-11-17T21:40:00.791Z,45.64
2017-11-17T21:42:26.591Z,45.89
2017-11-17T21:44:52.377Z,45.38
2017-11-17T21:47:18.184Z,44.69
2017-11-17T21:49:44.963Z,45.13
2017-11-17T21:52:10.888Z,46.20
2017-11-17T21:54:36.678Z,45.56
2017-11-17T21:57:02.461Z,45.08
2017-11-17T21:59:28.439Z,44.80
2017-11-17T22:01:54.285Z,45.43
2017-11-17T22:04:20.069Z,44.83
2017-11-17T22:06:45.890Z,44.38
2017-11-17T22:09:11.835Z,44.02
2017-11-17T22:11:41.727Z,46.20
2017-11-17T22:14:07.554Z,45.42
2017-11-17T22:16:33.352Z,45.60
2017-11-17T22:18:59.183Z,45.46
2017-11-17T22:21:24.957Z,45.31
2017-11-17T22:23:50.746Z,45.63
2017-11-17T22:26:16.541Z,43.96
2017-11-17T22:28:42.336Z,44.76
2017-11-17T22:31:08.130Z,45.14
2017-11-17T22:33:33.925Z,44.98
2017-11-17T22:35:59.709Z,44.66
2017-11-17T22:38:25.497Z,45.00
2017-11-17T22:40:51.324Z,44.52
2017-11-17T22:43:17.250Z,45.02
2017-11-17T22:45:43.025Z,44.07
2017-11-17T22:48:08.814Z,43.68
2017-11-17T22:50:34.596Z,43.52
2017-11-17T22:53:00.422Z,44.05
2017-11-17T22:55:26.305Z,43.91
2017-11-17T22:57:52.085Z,44.66
2017-11-17T23:00:19.175Z,44.92
2017-11-17T23:02:44.985Z,45.75
2017-11-17T23:05:10.773Z,44.14
2017-11-17T23:07:36.549Z,44.23
2017-11-17T23:10:02.372Z,44.73
2017-11-17T23:12:28.161Z,43.77
2017-11-17T23:14:53.990Z,43.63
2017-11-17T23:17:19.770Z,43.52
2017-11-17T23:19:45.569Z,44.56
2017-11-17T23:22:11.375Z,43.78
2017-11-17T23:24:37.206Z,43.52
2017-11-17T23:27:03.044Z,43.14
2017-11-17T23:29:28.822Z,43.21
2017-11-17T23:31:54.632Z,44.84
2017-11-17T23:34:20.434Z,45.67
2017-11-17T23:36:46.374Z,46.25
2017-11-17T23:39:12.169Z,46.52
2017-11-17T23:41:37.945Z,46.20
2017-11-17T23:44:03.728Z,46.84
2017-11-17T23:46:29.527Z,45.37
2017-11-17T23:48:55.324Z,44.46
2017-11-17T23:51:21.128Z,46.72
2017-11-17T23:53:46.913Z,45.06
2017-11-17T23:56:12.702Z,47.18
2017-11-17T23:58:38.524Z,46.79
